sensor_id;sensor_type;location;lat;lon;timestamp;temperature;humidity
68480;DHT22;55469;48.934;12.050;2023-08-01T00:01:30;21.30;99.90
68480;DHT22;55469;48.934;12.050;2023-08-01T00:03:56;21.30;99.90
68480;DHT22;55469;48.934;12.050;2023-08-01T00:06:22;21.30;99.90
68480;DHT22;55469;48.934;12.050;2023-08-01T00:08:49;21.30;99.90
68480;DHT22;55469;48.934;12.050;2023-08-01T00:11:15;21.30;99.90
68480;DHT22;55469;48.934;12.050;2023-08-01T00:13:41;21.30;99.90
68480;DHT22;55469;48.934;12.050;2023-08-01T00:16:09;21.30;99.90
68480;DHT22;55469;48.934;12.050;2023-08-01T00:18:35;21.20;99.90
68480;DHT22;55469;48.934;12.050;2023-08-01T00:21:01;21.20;99.90
68480;DHT22;55469;48.934;12.050;2023-08-01T00:23:27;21.20;99.90
68480;DHT22;55469;48.934;12.050;2023-08-01T00:25:53;21.20;99.90
68480;DHT22;55469;48.934;12.050;2023-08-01T00:28:18;21.20;99.90
68480;DHT22;55469;48.934;12.050;2023-08-01T00:30:44;21.20;99.90
68480;DHT22;55469;48.934;12.050;2023-08-01T00:33:10;21.20;99.90
68480;DHT22;55469;48.934;12.050;2023-08-01T00:35:36;21.20;99.90
68480;DHT22;55469;48.934;12.050;2023-08-01T00:38:01;21.20;99.90
68480;DHT22;55469;48.934;12.050;2023-08-01T00:40:34;21.20;99.90
68480;DHT22;55469;48.934;12.050;2023-08-01T00:43:00;21.20;99.90
68480;DHT22;55469;48.934;12.050;2023-08-01T00:45:30;21.20;99.90
68480;DHT22;55469;48.934;12.050;2023-08-01T00:47:56;21.10;99.90
68480;DHT22;55469;48.934;12.050;2023-08-01T00:50:22;21.10;99.90
68480;DHT22;55469;48.934;12.050;2023-08-01T00:52:52;21.10;99.90
68480;DHT22;55469;48.934;12.050;2023-08-01T00:55:18;21.10;99.90
68480;DHT22;55469;48.934;12.050;2023-08-01T00:57:44;21.10;99.90
68480;DHT22;55469;48.934;12.050;2023-08-01T01:00:11;21.00;99.90
68480;DHT22;55469;48.934;12.050;2023-08-01T01:02:37;21.00;99.90
68480;DHT22;55469;48.934;12.050;2023-08-01T01:05:04;21.10;99.90
68480;DHT22;55469;48.934;12.050;2023-08-01T01:07:31;21.00;99.90
68480;DHT22;55469;48.934;12.050;2023-08-01T01:09:58;21.10;99.90
68480;DHT22;55469;48.934;12.050;2023-08-01T01:12:24;21.00;99.90
68480;DHT22;55469;48.934;12.050;2023-08-01T01:14:50;21.00;99.90
68480;DHT22;55469;48.934;12.050;2023-08-01T01:17:15;21.00;99.90
68480;DHT22;55469;48.934;12.050;2023-08-01T01:19:41;21.00;99.90
68480;DHT22;55469;48.934;12.050;2023-08-01T01:22:09;21.00;99.90
68480;DHT22;55469;48.934;12.050;2023-08-01T01:24:36;21.00;99.90
68480;DHT22;55469;48.934;12.050;2023-08-01T01:27:03;20.90;99.90
68480;DHT22;55469;48.934;12.050;2023-08-01T01:29:31;21.00;99.90
68480;DHT22;55469;48.934;12.050;2023-08-01T01:31:59;20.90;99.90
68480;DHT22;55469;48.934;12.050;2023-08-01T01:34:27;20.90;99.90
68480;DHT22;55469;48.934;12.050;2023-08-01T01:36:53;20.90;99.90
68480;DHT22;55469;48.934;12.050;2023-08-01T01:39:19;20.90;99.90
68480;DHT22;55469;48.934;12.050;2023-08-01T01:41:44;20.90;99.90
68480;DHT22;55469;48.934;12.050;2023-08-01T01:44:10;20.90;99.90
68480;DHT22;55469;48.934;12.050;2023-08-01T01:46:36;20.80;99.90
68480;DHT22;55469;48.934;12.050;2023-08-01T01:49:01;20.80;99.90
68480;DHT22;55469;48.934;12.050;2023-08-01T01:51:28;20.80;99.90
68480;DHT22;55469;48.934;12.050;2023-08-01T01:53:55;20.80;99.90
68480;DHT22;55469;48.934;12.050;2023-08-01T01:56:20;20.80;99.90
68480;DHT22;55469;48.934;12.050;2023-08-01T01:58:46;20.80;99.90
68480;DHT22;55469;48.934;12.050;2023-08-01T02:01:12;20.70;99.90
68480;DHT22;55469;48.934;12.050;2023-08-01T02:03:37;20.70;99.90
68480;DHT22;55469;48.934;12.050;2023-08-01T02:06:03;20.70;99.90
68480;DHT22;55469;48.934;12.050;2023-08-01T02:08:30;20.70;99.90
68480;DHT22;55469;48.934;12.050;2023-08-01T02:10:56;20.70;99.90
68480;DHT22;55469;48.934;12.050;2023-08-01T02:13:27;20.70;99.90
68480;DHT22;55469;48.934;12.050;2023-08-01T02:15:54;20.70;99.90
68480;DHT22;55469;48.934;12.050;2023-08-01T02:18:20;20.70;99.90
68480;DHT22;55469;48.934;12.050;2023-08-01T02:20:45;20.70;99.90
68480;DHT22;55469;48.934;12.050;2023-08-01T02:23:11;20.60;99.90
68480;DHT22;55469;48.934;12.050;2023-08-01T02:25:41;20.70;99.90
68480;DHT22;55469;48.934;12.050;2023-08-01T02:28:07;20.60;99.90
68480;DHT22;55469;48.934;12.050;2023-08-01T02:30:34;20.60;99.90
68480;DHT22;55469;48.934;12.050;2023-08-01T02:33:00;20.60;99.90
68480;DHT22;55469;48.934;12.050;2023-08-01T02:35:26;20.60;99.90
68480;DHT22;55469;48.934;12.050;2023-08-01T02:37:53;20.60;99.90
68480;DHT22;55469;48.934;12.050;2023-08-01T02:40:19;20.60;99.90
68480;DHT22;55469;48.934;12.050;2023-08-01T02:42:45;20.60;99.90
68480;DHT22;55469;48.934;12.050;2023-08-01T02:45:11;20.60;99.90
68480;DHT22;55469;48.934;12.050;2023-08-01T02:47:37;20.60;99.90
68480;DHT22;55469;48.934;12.050;2023-08-01T02:50:03;20.60;99.90
68480;DHT22;55469;48.934;12.050;2023-08-01T02:52:30;20.50;99.90
68480;DHT22;55469;48.934;12.050;2023-08-01T02:54:55;20.50;99.90
68480;DHT22;55469;48.934;12.050;2023-08-01T02:57:21;20.50;99.90
68480;DHT22;55469;48.934;12.050;2023-08-01T02:59:47;20.50;99.90
68480;DHT22;55469;48.934;12.050;2023-08-01T03:02:13;20.50;99.90
68480;DHT22;55469;48.934;12.050;2023-08-01T03:04:38;20.50;99.90
68480;DHT22;55469;48.934;12.050;2023-08-01T03:07:04;20.50;99.90
68480;DHT22;55469;48.934;12.050;2023-08-01T03:09:31;20.50;99.90
68480;DHT22;55469;48.934;12.050;2023-08-01T03:11:57;20.50;99.90
68480;DHT22;55469;48.934;12.050;2023-08-01T03:14:23;20.50;99.90
68480;DHT22;55469;48.934;12.050;2023-08-01T03:16:49;20.50;99.90
68480;DHT22;55469;48.934;12.050;2023-08-01T03:19:14;20.50;99.90
68480;DHT22;55469;48.934;12.050;2023-08-01T03:21:40;20.50;99.90
68480;DHT22;55469;48.934;12.050;2023-08-01T03:24:06;20.40;99.90
68480;DHT22;55469;48.934;12.050;2023-08-01T03:26:37;20.50;99.90
68480;DHT22;55469;48.934;12.050;2023-08-01T03:29:03;20.40;99.90
68480;DHT22;55469;48.934;12.050;2023-08-01T03:31:30;20.40;99.90
68480;DHT22;55469;48.934;12.050;2023-08-01T03:33:56;20.40;99.90
68480;DHT22;55469;48.934;12.050;2023-08-01T03:36:24;20.40;99.90
68480;DHT22;55469;48.934;12.050;2023-08-01T03:38:50;20.40;99.90
68480;DHT22;55469;48.934;12.050;2023-08-01T03:41:16;20.30;99.90
68480;DHT22;55469;48.934;12.050;2023-08-01T03:43:42;20.40;99.90
68480;DHT22;55469;48.934;12.050;2023-08-01T03:46:07;20.30;99.90
68480;DHT22;55469;48.934;12.050;2023-08-01T03:48:34;20.30;99.90
68480;DHT22;55469;48.934;12.050;2023-08-01T03:51:00;20.30;99.90
68480;DHT22;55469;48.934;12.050;2023-08-01T03:53:28;20.30;99.90
68480;DHT22;55469;48.934;12.050;2023-08-01T03:55:54;20.30;99.90
68480;DHT22;55469;48.934;12.050;2023-08-01T03:58:19;20.30;99.90
68480;DHT22;55469;48.934;12.050;2023-08-01T04:00:45;20.30;99.90
68480;DHT22;55469;48.934;12.050;2023-08-01T04:03:11;20.20;99.90
68480;DHT22;55469;48.934;12.050;2023-08-01T04:05:37;20.30;99.90
68480;DHT22;55469;48.934;12.050;2023-08-01T04:08:03;20.20;99.90
68480;DHT22;55469;48.934;12.050;2023-08-01T04:10:28;20.20;99.90
68480;DHT22;55469;48.934;12.050;2023-08-01T04:12:54;20.20;99.90
68480;DHT22;55469;48.934;12.050;2023-08-01T04:15:20;20.10;99.90
68480;DHT22;55469;48.934;12.050;2023-08-01T04:17:45;20.10;99.90
68480;DHT22;55469;48.934;12.050;2023-08-01T04:20:11;20.10;99.90
68480;DHT22;55469;48.934;12.050;2023-08-01T04:22:38;20.10;99.90
68480;DHT22;55469;48.934;12.050;2023-08-01T04:25:04;20.10;99.90
68480;DHT22;55469;48.934;12.050;2023-08-01T04:27:30;20.00;99.90
68480;DHT22;55469;48.934;12.050;2023-08-01T04:29:56;20.00;99.90
68480;DHT22;55469;48.934;12.050;2023-08-01T04:32:22;20.00;99.90
68480;DHT22;55469;48.934;12.050;2023-08-01T04:34:47;20.00;99.90
68480;DHT22;55469;48.934;12.050;2023-08-01T04:37:13;20.00;99.90
68480;DHT22;55469;48.934;12.050;2023-08-01T04:39:39;20.00;99.90
68480;DHT22;55469;48.934;12.050;2023-08-01T04:42:05;20.00;99.90
68480;DHT22;55469;48.934;12.050;2023-08-01T04:44:31;20.00;99.90
68480;DHT22;55469;48.934;12.050;2023-08-01T04:46:57;20.00;99.90
68480;DHT22;55469;48.934;12.050;2023-08-01T04:49:23;20.00;99.90
68480;DHT22;55469;48.934;12.050;2023-08-01T04:51:50;19.90;99.90
68480;DHT22;55469;48.934;12.050;2023-08-01T04:54:16;19.90;99.90
68480;DHT22;55469;48.934;12.050;2023-08-01T04:56:42;19.80;99.90
68480;DHT22;55469;48.934;12.050;2023-08-01T04:59:08;19.80;99.90
68480;DHT22;55469;48.934;12.050;2023-08-01T05:01:33;19.80;99.90
68480;DHT22;55469;48.934;12.050;2023-08-01T05:03:59;19.80;99.90
68480;DHT22;55469;48.934;12.050;2023-08-01T05:06:25;19.80;99.90
68480;DHT22;55469;48.934;12.050;2023-08-01T05:08:51;19.80;99.90
68480;DHT22;55469;48.934;12.050;2023-08-01T05:11:16;19.80;99.90
68480;DHT22;55469;48.934;12.050;2023-08-01T05:13:42;19.80;99.90
68480;DHT22;55469;48.934;12.050;2023-08-01T05:16:08;19.80;99.90
68480;DHT22;55469;48.934;12.050;2023-08-01T05:18:33;19.80;99.90
68480;DHT22;55469;48.934;12.050;2023-08-01T05:20:59;19.80;99.90
68480;DHT22;55469;48.934;12.050;2023-08-01T05:23:25;19.80;99.90
68480;DHT22;55469;48.934;12.050;2023-08-01T05:25:51;19.70;99.90
68480;DHT22;55469;48.934;12.050;2023-08-01T05:28:16;19.70;99.90
68480;DHT22;55469;48.934;12.050;2023-08-01T05:30:42;19.80;99.90
68480;DHT22;55469;48.934;12.050;2023-08-01T05:33:08;19.70;99.90
68480;DHT22;55469;48.934;12.050;2023-08-01T05:35:33;19.70;99.90
68480;DHT22;55469;48.934;12.050;2023-08-01T05:37:59;19.70;99.90
68480;DHT22;55469;48.934;12.050;2023-08-01T05:40:25;19.70;99.90
68480;DHT22;55469;48.934;12.050;2023-08-01T05:42:51;19.70;99.90
68480;DHT22;55469;48.934;12.050;2023-08-01T05:45:17;19.70;99.90
68480;DHT22;55469;48.934;12.050;2023-08-01T05:47:42;19.60;99.90
68480;DHT22;55469;48.934;12.050;2023-08-01T05:50:09;19.60;99.90
68480;DHT22;55469;48.934;12.050;2023-08-01T05:52:35;19.70;99.90
68480;DHT22;55469;48.934;12.050;2023-08-01T05:55:01;19.60;99.90
68480;DHT22;55469;48.934;12.050;2023-08-01T05:57:27;19.60;99.90
68480;DHT22;55469;48.934;12.050;2023-08-01T05:59:53;19.60;99.90
68480;DHT22;55469;48.934;12.050;2023-08-01T06:02:18;19.60;99.90
68480;DHT22;55469;48.934;12.050;2023-08-01T06:04:44;19.60;99.90
68480;DHT22;55469;48.934;12.050;2023-08-01T06:07:10;19.60;99.90
68480;DHT22;55469;48.934;12.050;2023-08-01T06:09:35;19.60;99.90
68480;DHT22;55469;48.934;12.050;2023-08-01T06:12:01;19.60;99.90
68480;DHT22;55469;48.934;12.050;2023-08-01T06:14:27;19.60;99.90
68480;DHT22;55469;48.934;12.050;2023-08-01T06:16:53;19.60;99.90
68480;DHT22;55469;48.934;12.050;2023-08-01T06:19:18;19.60;99.90
68480;DHT22;55469;48.934;12.050;2023-08-01T06:21:44;19.60;99.90
68480;DHT22;55469;48.934;12.050;2023-08-01T06:24:10;19.50;99.90
68480;DHT22;55469;48.934;12.050;2023-08-01T06:26:36;19.50;99.90
68480;DHT22;55469;48.934;12.050;2023-08-01T06:29:01;19.60;99.90
68480;DHT22;55469;48.934;12.050;2023-08-01T06:31:27;19.50;99.90
68480;DHT22;55469;48.934;12.050;2023-08-01T06:33:53;19.60;99.90
68480;DHT22;55469;48.934;12.050;2023-08-01T06:36:19;19.60;99.90
68480;DHT22;55469;48.934;12.050;2023-08-01T06:38:44;19.60;99.90
68480;DHT22;55469;48.934;12.050;2023-08-01T06:41:11;19.50;99.90
68480;DHT22;55469;48.934;12.050;2023-08-01T06:43:37;19.60;99.90
68480;DHT22;55469;48.934;12.050;2023-08-01T06:46:04;19.50;99.90
68480;DHT22;55469;48.934;12.050;2023-08-01T06:48:33;19.50;99.90
68480;DHT22;55469;48.934;12.050;2023-08-01T06:51:02;19.60;99.90
68480;DHT22;55469;48.934;12.050;2023-08-01T06:53:28;19.60;99.90
68480;DHT22;55469;48.934;12.050;2023-08-01T06:55:54;19.60;99.90
68480;DHT22;55469;48.934;12.050;2023-08-01T06:58:19;19.50;99.90
68480;DHT22;55469;48.934;12.050;2023-08-01T07:00:45;19.50;99.90
68480;DHT22;55469;48.934;12.050;2023-08-01T07:03:11;19.50;99.90
68480;DHT22;55469;48.934;12.050;2023-08-01T07:05:37;19.50;99.90
68480;DHT22;55469;48.934;12.050;2023-08-01T07:08:03;19.60;99.90
68480;DHT22;55469;48.934;12.050;2023-08-01T07:10:29;19.50;99.90
68480;DHT22;55469;48.934;12.050;2023-08-01T07:12:55;19.50;99.90
68480;DHT22;55469;48.934;12.050;2023-08-01T07:15:21;19.50;99.90
68480;DHT22;55469;48.934;12.050;2023-08-01T07:17:47;19.50;99.90
68480;DHT22;55469;48.934;12.050;2023-08-01T07:20:13;19.50;99.90
68480;DHT22;55469;48.934;12.050;2023-08-01T07:22:38;19.50;99.90
68480;DHT22;55469;48.934;12.050;2023-08-01T07:25:04;19.50;99.90
68480;DHT22;55469;48.934;12.050;2023-08-01T07:27:30;19.50;99.90
68480;DHT22;55469;48.934;12.050;2023-08-01T07:29:56;19.50;99.90
68480;DHT22;55469;48.934;12.050;2023-08-01T07:32:22;19.50;99.90
68480;DHT22;55469;48.934;12.050;2023-08-01T07:34:48;19.50;99.90
68480;DHT22;55469;48.934;12.050;2023-08-01T07:37:13;19.50;99.90
68480;DHT22;55469;48.934;12.050;2023-08-01T07:39:39;19.50;99.90
68480;DHT22;55469;48.934;12.050;2023-08-01T07:42:05;19.50;99.90
68480;DHT22;55469;48.934;12.050;2023-08-01T07:44:31;19.50;99.90
68480;DHT22;55469;48.934;12.050;2023-08-01T07:46:57;19.50;99.90
68480;DHT22;55469;48.934;12.050;2023-08-01T07:49:22;19.50;99.90
68480;DHT22;55469;48.934;12.050;2023-08-01T07:51:48;19.50;99.90
68480;DHT22;55469;48.934;12.050;2023-08-01T07:54:14;19.50;99.90
68480;DHT22;55469;48.934;12.050;2023-08-01T07:56:40;19.50;99.90
68480;DHT22;55469;48.934;12.050;2023-08-01T07:59:05;19.50;99.90
68480;DHT22;55469;48.934;12.050;2023-08-01T08:01:31;19.50;99.90
68480;DHT22;55469;48.934;12.050;2023-08-01T08:03:57;19.50;99.90
68480;DHT22;55469;48.934;12.050;2023-08-01T08:06:22;19.50;99.90
68480;DHT22;55469;48.934;12.050;2023-08-01T08:08:49;19.50;99.90
68480;DHT22;55469;48.934;12.050;2023-08-01T08:11:15;19.50;99.90
68480;DHT22;55469;48.934;12.050;2023-08-01T08:13:41;19.50;99.90
68480;DHT22;55469;48.934;12.050;2023-08-01T08:16:07;19.50;99.90
68480;DHT22;55469;48.934;12.050;2023-08-01T08:18:33;19.50;99.90
68480;DHT22;55469;48.934;12.050;2023-08-01T08:20:59;19.60;99.90
68480;DHT22;55469;48.934;12.050;2023-08-01T08:23:24;19.50;99.90
68480;DHT22;55469;48.934;12.050;2023-08-01T08:25:50;19.50;99.90
68480;DHT22;55469;48.934;12.050;2023-08-01T08:28:26;19.50;99.90
68480;DHT22;55469;48.934;12.050;2023-08-01T08:30:56;19.60;99.90
68480;DHT22;55469;48.934;12.050;2023-08-01T08:33:22;19.50;99.90
68480;DHT22;55469;48.934;12.050;2023-08-01T08:35:48;19.50;99.90
68480;DHT22;55469;48.934;12.050;2023-08-01T08:38:15;19.60;99.90
68480;DHT22;55469;48.934;12.050;2023-08-01T08:41:09;19.50;99.90
68480;DHT22;55469;48.934;12.050;2023-08-01T08:43:37;19.50;99.90
68480;DHT22;55469;48.934;12.050;2023-08-01T08:46:04;19.60;99.90
68480;DHT22;55469;48.934;12.050;2023-08-01T08:48:31;19.50;99.90
68480;DHT22;55469;48.934;12.050;2023-08-01T08:51:01;19.50;99.90
68480;DHT22;55469;48.934;12.050;2023-08-01T08:53:29;19.50;99.90
68480;DHT22;55469;48.934;12.050;2023-08-01T08:55:56;19.50;99.90
68480;DHT22;55469;48.934;12.050;2023-08-01T08:58:22;19.50;99.90
68480;DHT22;55469;48.934;12.050;2023-08-01T09:00:49;19.50;99.90
68480;DHT22;55469;48.934;12.050;2023-08-01T09:03:15;19.50;99.90
68480;DHT22;55469;48.934;12.050;2023-08-01T09:05:54;19.60;99.90
68480;DHT22;55469;48.934;12.050;2023-08-01T09:08:28;19.50;99.90
68480;DHT22;55469;48.934;12.050;2023-08-01T09:10:55;19.60;99.90
68480;DHT22;55469;48.934;12.050;2023-08-01T09:13:21;19.50;99.90
68480;DHT22;55469;48.934;12.050;2023-08-01T09:15:47;19.60;99.90
68480;DHT22;55469;48.934;12.050;2023-08-01T09:18:13;19.60;99.90
68480;DHT22;55469;48.934;12.050;2023-08-01T09:20:44;19.60;99.90
68480;DHT22;55469;48.934;12.050;2023-08-01T09:23:11;19.50;99.90
68480;DHT22;55469;48.934;12.050;2023-08-01T09:25:38;19.50;99.90
68480;DHT22;55469;48.934;12.050;2023-08-01T09:28:21;19.50;99.90
68480;DHT22;55469;48.934;12.050;2023-08-01T09:30:50;19.60;99.90
68480;DHT22;55469;48.934;12.050;2023-08-01T09:33:18;19.50;99.90
68480;DHT22;55469;48.934;12.050;2023-08-01T09:35:44;19.50;99.90
68480;DHT22;55469;48.934;12.050;2023-08-01T09:38:12;19.50;99.90
68480;DHT22;55469;48.934;12.050;2023-08-01T09:40:40;19.50;99.90
68480;DHT22;55469;48.934;12.050;2023-08-01T09:43:06;19.50;99.90
68480;DHT22;55469;48.934;12.050;2023-08-01T09:45:32;19.50;99.90
68480;DHT22;55469;48.934;12.050;2023-08-01T09:47:59;19.50;99.90
68480;DHT22;55469;48.934;12.050;2023-08-01T09:50:26;19.50;99.90
68480;DHT22;55469;48.934;12.050;2023-08-01T09:52:52;19.50;99.90
68480;DHT22;55469;48.934;12.050;2023-08-01T09:55:38;19.50;99.90
68480;DHT22;55469;48.934;12.050;2023-08-01T09:58:06;19.40;99.90
68480;DHT22;55469;48.934;12.050;2023-08-01T10:00:33;19.40;99.90
68480;DHT22;55469;48.934;12.050;2023-08-01T10:02:59;19.40;99.90
68480;DHT22;55469;48.934;12.050;2023-08-01T10:05:30;19.40;99.90
68480;DHT22;55469;48.934;12.050;2023-08-01T10:08:01;19.40;99.90
68480;DHT22;55469;48.934;12.050;2023-08-01T10:10:28;19.40;99.90
68480;DHT22;55469;48.934;12.050;2023-08-01T10:12:56;19.40;99.90
68480;DHT22;55469;48.934;12.050;2023-08-01T10:15:24;19.40;99.90
68480;DHT22;55469;48.934;12.050;2023-08-01T10:17:51;19.40;99.90
68480;DHT22;55469;48.934;12.050;2023-08-01T10:20:18;19.40;99.90
68480;DHT22;55469;48.934;12.050;2023-08-01T10:22:44;19.40;99.90
68480;DHT22;55469;48.934;12.050;2023-08-01T10:25:10;19.40;99.90
68480;DHT22;55469;48.934;12.050;2023-08-01T10:27:36;19.40;99.90
68480;DHT22;55469;48.934;12.050;2023-08-01T10:30:04;19.40;99.90
68480;DHT22;55469;48.934;12.050;2023-08-01T10:32:37;19.30;99.90
68480;DHT22;55469;48.934;12.050;2023-08-01T10:35:04;19.30;99.90
68480;DHT22;55469;48.934;12.050;2023-08-01T10:37:44;19.30;99.90
68480;DHT22;55469;48.934;12.050;2023-08-01T10:40:13;19.30;99.90
68480;DHT22;55469;48.934;12.050;2023-08-01T10:42:41;19.30;99.90
68480;DHT22;55469;48.934;12.050;2023-08-01T10:45:24;19.30;99.90
68480;DHT22;55469;48.934;12.050;2023-08-01T10:47:52;19.30;99.90
68480;DHT22;55469;48.934;12.050;2023-08-01T10:50:18;19.30;99.90
68480;DHT22;55469;48.934;12.050;2023-08-01T10:52:44;19.30;99.90
68480;DHT22;55469;48.934;12.050;2023-08-01T10:55:11;19.30;99.90
68480;DHT22;55469;48.934;12.050;2023-08-01T10:57:48;19.30;99.90
68480;DHT22;55469;48.934;12.050;2023-08-01T11:00:18;19.30;99.90
68480;DHT22;55469;48.934;12.050;2023-08-01T11:02:54;19.30;99.90
68480;DHT22;55469;48.934;12.050;2023-08-01T11:05:20;19.30;99.90
68480;DHT22;55469;48.934;12.050;2023-08-01T11:08:03;19.30;99.90
68480;DHT22;55469;48.934;12.050;2023-08-01T11:10:30;19.30;99.90
68480;DHT22;55469;48.934;12.050;2023-08-01T11:12:57;19.20;99.90
68480;DHT22;55469;48.934;12.050;2023-08-01T11:15:23;19.30;99.90
68480;DHT22;55469;48.934;12.050;2023-08-01T11:17:52;19.20;99.90
68480;DHT22;55469;48.934;12.050;2023-08-01T11:20:23;19.30;99.90
68480;DHT22;55469;48.934;12.050;2023-08-01T11:22:59;19.30;99.90
68480;DHT22;55469;48.934;12.050;2023-08-01T11:25:39;19.30;99.90
68480;DHT22;55469;48.934;12.050;2023-08-01T11:28:09;19.30;99.90
68480;DHT22;55469;48.934;12.050;2023-08-01T11:30:36;19.30;99.90
68480;DHT22;55469;48.934;12.050;2023-08-01T11:33:13;19.20;99.90
68480;DHT22;55469;48.934;12.050;2023-08-01T11:35:43;19.20;99.90
68480;DHT22;55469;48.934;12.050;2023-08-01T11:38:09;19.20;99.90
68480;DHT22;55469;48.934;12.050;2023-08-01T11:40:34;19.20;99.90
68480;DHT22;55469;48.934;12.050;2023-08-01T11:43:00;19.20;99.90
68480;DHT22;55469;48.934;12.050;2023-08-01T11:45:26;19.20;99.90
68480;DHT22;55469;48.934;12.050;2023-08-01T11:47:52;19.20;99.90
68480;DHT22;55469;48.934;12.050;2023-08-01T11:50:22;19.20;99.90
68480;DHT22;55469;48.934;12.050;2023-08-01T11:52:48;19.30;99.90
68480;DHT22;55469;48.934;12.050;2023-08-01T11:55:26;19.20;99.90
68480;DHT22;55469;48.934;12.050;2023-08-01T11:57:54;19.20;99.90
68480;DHT22;55469;48.934;12.050;2023-08-01T12:00:25;19.20;99.90
68480;DHT22;55469;48.934;12.050;2023-08-01T12:03:04;19.20;99.90
68480;DHT22;55469;48.934;12.050;2023-08-01T12:05:31;19.20;99.90
68480;DHT22;55469;48.934;12.050;2023-08-01T12:08:08;19.20;99.90
68480;DHT22;55469;48.934;12.050;2023-08-01T12:10:38;19.20;99.90
68480;DHT22;55469;48.934;12.050;2023-08-01T12:13:23;19.20;99.90
68480;DHT22;55469;48.934;12.050;2023-08-01T12:15:52;19.20;99.90
68480;DHT22;55469;48.934;12.050;2023-08-01T12:18:23;19.30;99.90
68480;DHT22;55469;48.934;12.050;2023-08-01T12:20:50;19.20;99.90
68480;DHT22;55469;48.934;12.050;2023-08-01T12:23:16;19.20;99.90
68480;DHT22;55469;48.934;12.050;2023-08-01T12:25:41;19.20;99.90
68480;DHT22;55469;48.934;12.050;2023-08-01T12:28:07;19.30;99.90
68480;DHT22;55469;48.934;12.050;2023-08-01T12:30:33;19.20;99.90
68480;DHT22;55469;48.934;12.050;2023-08-01T12:32:59;19.20;99.90
68480;DHT22;55469;48.934;12.050;2023-08-01T12:35:26;19.20;99.90
68480;DHT22;55469;48.934;12.050;2023-08-01T12:37:53;19.30;99.90
68480;DHT22;55469;48.934;12.050;2023-08-01T12:40:19;19.30;99.90
68480;DHT22;55469;48.934;12.050;2023-08-01T12:42:46;19.20;99.90
68480;DHT22;55469;48.934;12.050;2023-08-01T12:45:12;19.20;99.90
68480;DHT22;55469;48.934;12.050;2023-08-01T12:47:39;19.30;99.90
68480;DHT22;55469;48.934;12.050;2023-08-01T12:50:05;19.20;99.90
68480;DHT22;55469;48.934;12.050;2023-08-01T12:52:31;19.30;99.90
68480;DHT22;55469;48.934;12.050;2023-08-01T12:54:57;19.30;99.90
68480;DHT22;55469;48.934;12.050;2023-08-01T12:57:22;19.30;99.90
68480;DHT22;55469;48.934;12.050;2023-08-01T12:59:48;19.30;99.90
68480;DHT22;55469;48.934;12.050;2023-08-01T13:02:14;19.30;99.90
68480;DHT22;55469;48.934;12.050;2023-08-01T13:04:40;19.30;99.90
68480;DHT22;55469;48.934;12.050;2023-08-01T13:07:06;19.30;99.90
68480;DHT22;55469;48.934;12.050;2023-08-01T13:09:31;19.30;99.90
68480;DHT22;55469;48.934;12.050;2023-08-01T13:11:57;19.30;99.90
68480;DHT22;55469;48.934;12.050;2023-08-01T13:14:25;19.30;99.90
68480;DHT22;55469;48.934;12.050;2023-08-01T13:16:51;19.30;99.90
68480;DHT22;55469;48.934;12.050;2023-08-01T13:19:18;19.30;99.90
68480;DHT22;55469;48.934;12.050;2023-08-01T13:21:44;19.30;99.90
68480;DHT22;55469;48.934;12.050;2023-08-01T13:24:09;19.30;99.90
68480;DHT22;55469;48.934;12.050;2023-08-01T13:26:35;19.30;99.90
68480;DHT22;55469;48.934;12.050;2023-08-01T13:29:01;19.30;99.90
68480;DHT22;55469;48.934;12.050;2023-08-01T13:31:27;19.40;99.90
68480;DHT22;55469;48.934;12.050;2023-08-01T13:33:54;19.40;99.90
68480;DHT22;55469;48.934;12.050;2023-08-01T13:36:20;19.40;99.90
68480;DHT22;55469;48.934;12.050;2023-08-01T13:38:46;19.40;99.90
68480;DHT22;55469;48.934;12.050;2023-08-01T13:41:13;19.40;99.90
68480;DHT22;55469;48.934;12.050;2023-08-01T13:43:39;19.40;99.90
68480;DHT22;55469;48.934;12.050;2023-08-01T13:46:14;19.40;99.90
68480;DHT22;55469;48.934;12.050;2023-08-01T13:48:42;19.40;99.90
68480;DHT22;55469;48.934;12.050;2023-08-01T13:51:09;19.40;99.90
68480;DHT22;55469;48.934;12.050;2023-08-01T13:53:35;19.40;99.90
68480;DHT22;55469;48.934;12.050;2023-08-01T13:56:15;19.40;99.90
68480;DHT22;55469;48.934;12.050;2023-08-01T13:58:41;19.50;99.90
68480;DHT22;55469;48.934;12.050;2023-08-01T14:01:08;19.50;99.90
68480;DHT22;55469;48.934;12.050;2023-08-01T14:03:38;19.50;99.90
68480;DHT22;55469;48.934;12.050;2023-08-01T14:06:14;19.40;99.90
68480;DHT22;55469;48.934;12.050;2023-08-01T14:08:41;19.40;99.90
68480;DHT22;55469;48.934;12.050;2023-08-01T14:11:08;19.50;99.90
68480;DHT22;55469;48.934;12.050;2023-08-01T14:13:35;19.50;99.90
68480;DHT22;55469;48.934;12.050;2023-08-01T14:16:02;19.50;99.90
68480;DHT22;55469;48.934;12.050;2023-08-01T14:18:31;19.50;99.90
68480;DHT22;55469;48.934;12.050;2023-08-01T14:20:56;19.60;99.90
68480;DHT22;55469;48.934;12.050;2023-08-01T14:23:22;19.60;99.90
68480;DHT22;55469;48.934;12.050;2023-08-01T14:25:48;19.60;99.90
68480;DHT22;55469;48.934;12.050;2023-08-01T14:28:14;19.60;99.90
68480;DHT22;55469;48.934;12.050;2023-08-01T14:30:40;19.60;99.90
68480;DHT22;55469;48.934;12.050;2023-08-01T14:33:08;19.60;99.90
68480;DHT22;55469;48.934;12.050;2023-08-01T14:35:35;19.60;99.90
68480;DHT22;55469;48.934;12.050;2023-08-01T14:38:01;19.70;99.90
68480;DHT22;55469;48.934;12.050;2023-08-01T14:40:28;19.70;99.90
68480;DHT22;55469;48.934;12.050;2023-08-01T14:42:54;19.80;99.90
68480;DHT22;55469;48.934;12.050;2023-08-01T14:45:21;19.70;99.90
68480;DHT22;55469;48.934;12.050;2023-08-01T14:47:47;19.70;99.90
68480;DHT22;55469;48.934;12.050;2023-08-01T14:50:14;19.80;99.90
68480;DHT22;55469;48.934;12.050;2023-08-01T14:52:40;19.80;99.90
68480;DHT22;55469;48.934;12.050;2023-08-01T14:55:07;19.80;99.90
68480;DHT22;55469;48.934;12.050;2023-08-01T14:57:34;19.80;99.90
68480;DHT22;55469;48.934;12.050;2023-08-01T15:00:00;19.90;99.90
68480;DHT22;55469;48.934;12.050;2023-08-01T15:02:26;19.90;99.90
68480;DHT22;55469;48.934;12.050;2023-08-01T15:04:53;19.90;99.90
68480;DHT22;55469;48.934;12.050;2023-08-01T15:07:21;20.00;99.90
68480;DHT22;55469;48.934;12.050;2023-08-01T15:09:51;20.00;99.90
68480;DHT22;55469;48.934;12.050;2023-08-01T15:12:18;20.00;99.90
68480;DHT22;55469;48.934;12.050;2023-08-01T15:14:55;20.00;99.90